Luzon Spirit — C6CG7 — position and weather

sailwx.info

Track history (hours):
 
Tides and Currents Weather Stations Pressure Air Temp Water Temp Dewpoint Dewpoint Depression Visibility Wind Speed Wind Dir Waves Ship Positions

Luzon Spirit

Last reported at 2017-Dec-16 00:53 UTC. Time now 2017-Dec-17 08:24 UTC.
Position N 34°19' W 127°57'.

Length 243 m; draft 14.8 m.

Type: Tanker. MMSI: 311000467.

Date/timePositionNaut miles runAvg speedWind from/ knotsBaromVisibWave heightAir tempDewpointWater temp
2017-Dec-16 00:53N 34°19' W 127°57'2612.1
2017-Dec-15 22:45N 34°21' W 127°25'312.2
2017-Dec-15 22:30N 34°21' W 127°22'712.5
2017-Dec-15 21:56N 34°21' W 127°13'2712.3
2017-Dec-15 19:43N 34°22' W 126°40'312.6
2017-Dec-15 19:30N 34°22' W 126°37'2412.5
2017-Dec-15 17:36N 34°24' W 126°08'712.4
2017-Dec-15 17:01N 34°24' W 125°60'312.3
2017-Dec-15 16:45N 34°24' W 125°56'412.4
2017-Dec-15 16:26N 34°25' W 125°51'512.4
2017-Dec-15 16:00N 34°25' W 125°44'510.8
2017-Dec-15 15:30N 34°25' W 125°38'5 9.2
2017-Dec-15 15:00N 34°25' W 125°32'3411.2
2017-Dec-15 11:59N 34°26' W 124°51'612.0
2017-Dec-15 11:30N 34°26' W 124°44'712.2
2017-Dec-15 10:54N 34°27' W 124°35'511.9
2017-Dec-15 10:30N 34°27' W 124°30'612.0
2017-Dec-15 09:59N 34°27' W 124°22'611.8
2017-Dec-15 09:31N 34°27' W 124°15'611.8
2017-Dec-15 09:00N 34°26' W 124°08'612.1
2017-Dec-15 08:30N 34°26' W 124°01'612.0
2017-Dec-15 08:00N 34°26' W 123°54'612.1
2017-Dec-15 07:31N 34°26' W 123°46'612.1
2017-Dec-15 07:00N 34°27' W 123°39'612.4
2017-Dec-15 06:30N 34°26' W 123°31'712.6
2017-Dec-15 05:59N 34°27' W 123°23'612.6
2017-Dec-15 05:30N 34°27' W 123°16'612.5
2017-Dec-15 05:00N 34°27' W 123°08'612.5
2017-Dec-15 04:31N 34°26' W 123°01'612.5
2017-Dec-15 04:00N 34°27' W 122°53'1812.2
2017-Dec-15 02:30N 34°27' W 122°31'1812.2
2017-Dec-15 01:00N 34°26' W 122°09'612.0
2017-Dec-15 00:30N 34°27' W 122°02'7312.2
2017-Dec-14 18:30N 34°22' W 120°33'612.8
2017-Dec-14 18:00N 34°20' W 120°25'612.9
2017-Dec-14 17:30N 34°19' W 120°18'712.9
2017-Dec-14 17:00N 34°17' W 120°10'612.8
2017-Dec-14 16:30N 34°15' W 120°03'713.0
2017-Dec-14 16:00N 34°14' W 119°55'1313.3
2017-Dec-14 15:00N 34°10' W 119°40'713.4
2017-Dec-14 14:30N 34°08' W 119°32'713.6
2017-Dec-14 14:00N 34°06' W 119°24'713.5
2017-Dec-14 13:29N 34°04' W 119°16'613.4
2017-Dec-14 13:00N 34°01' W 119°09'713.3
2017-Dec-14 12:30N 33°58' W 119°02'713.4
2017-Dec-14 12:00N 33°55' W 118°55'713.0
2017-Dec-14 11:30N 33°51' W 118°48'612.4
2017-Dec-14 11:00N 33°48' W 118°42'611.6
2017-Dec-14 10:31N 33°45' W 118°36'611.8
2017-Dec-14 10:00N 33°42' W 118°30'611.8
2017-Dec-14 09:30N 33°40' W 118°24'611.3
2017-Dec-14 09:00N 33°38' W 118°17'5 9.9
2017-Dec-14 08:31N 33°40' W 118°12'4 7.0
2017-Dec-14 08:00N 33°44' W 118°12'0 0.3
2017-Dec-14 06:13N 33°44' W 118°12'0 0.0
2017-Dec-14 01:43N 33°44' W 118°12'0 0.0
2017-Dec-14 01:13N 33°44' W 118°12'0 0.0
2017-Dec-14 00:55N 33°44' W 118°12'0 0.0
2017-Dec-14 00:07N 33°44' W 118°12'0 0.0
2017-Dec-13 23:55N 33°44' W 118°12'0 0.0
2017-Dec-13 21:25N 33°44' W 118°12'0 0.0
2017-Dec-13 20:55N 33°44' W 118°12'0 0.1
2017-Dec-13 20:19N 33°44' W 118°12'0 0.1
2017-Dec-13 19:55N 33°44' W 118°12'0 0.0
2017-Dec-13 19:25N 33°44' W 118°12'0 0.1
2017-Dec-13 18:55N 33°44' W 118°12'0 0.1
2017-Dec-13 18:25N 33°44' W 118°12'0 0.0
2017-Dec-13 17:55N 33°44' W 118°12'0 0.0
2017-Dec-13 05:55N 33°44' W 118°12'0 0.1
2017-Dec-13 05:25N 33°44' W 118°12'3 0.3
2017-Dec-12 17:16N 33°42' W 118°09'0 0.0
2017-Dec-12 16:52N 33°42' W 118°09'0 0.0
2017-Dec-12 16:28N 33°42' W 118°09'0 0.0
2017-Dec-12 15:58N 33°42' W 118°09'0 0.0
2017-Dec-12 15:28N 33°42' W 118°09'0 0.0
2017-Dec-12 14:58N 33°42' W 118°09'0 0.0
2017-Dec-12 13:52N 33°42' W 118°09'0 0.0
2017-Dec-12 12:46N 33°42' W 118°09'0 0.0
2017-Dec-12 12:16N 33°42' W 118°09'0 0.0
2017-Dec-12 11:58N 33°42' W 118°09'0 0.0
2017-Dec-12 11:28N 33°42' W 118°09'0 0.0
2017-Dec-12 10:58N 33°42' W 118°09'0 0.0
2017-Dec-12 07:40N 33°42' W 118°09'0 0.0
2017-Dec-12 07:28N 33°42' W 118°09'4 0.6
2017-Dec-12 02:03N 33°39' W 118°11'0 5.3
2017-Dec-12 02:00N 33°39' W 118°11'5 5.2
2017-Dec-12 01:06N 33°36' W 118°16'1 6.9
2017-Dec-12 01:00N 33°36' W 118°17'5 9.1
2017-Dec-12 00:30N 33°37' W 118°23'611.2
2017-Dec-12 00:00N 33°40' W 118°28'510.8
2017-Dec-11 23:30N 33°43' W 118°34'611.0
2017-Dec-11 22:59N 33°48' W 118°31'7 7.5
2017-Dec-11 22:02N 33°55' W 118°28'0 2.0
2017-Dec-11 21:59N 33°55' W 118°28'  
2017-Dec-08 16:22N 33°54' W 118°27'  
Track history (hours):
 
Tides and Currents Weather Stations Pressure Air Temp Water Temp Dewpoint Dewpoint Depression Visibility Wind Speed Wind Dir Waves Ship Positions

Luzon Spirit

Last reported at 2017-Dec-16 00:53 UTC. Time now 2017-Dec-17 08:24 UTC.
Position N 34°19' W 127°57'.

Length 243 m; draft 14.8 m.

Type: Tanker. MMSI: 311000467.

Date/timePositionNaut miles runAvg speedWind from/ knotsBaromVisibWave heightAir tempDewpointWater temp
2017-Dec-16 00:53N 34°19' W 127°57'2612.1
2017-Dec-15 22:45N 34°21' W 127°25'312.2
2017-Dec-15 22:30N 34°21' W 127°22'712.5
2017-Dec-15 21:56N 34°21' W 127°13'2712.3
2017-Dec-15 19:43N 34°22' W 126°40'312.6
2017-Dec-15 19:30N 34°22' W 126°37'2412.5
2017-Dec-15 17:36N 34°24' W 126°08'712.4
2017-Dec-15 17:01N 34°24' W 125°60'312.3
2017-Dec-15 16:45N 34°24' W 125°56'412.4
2017-Dec-15 16:26N 34°25' W 125°51'512.4
2017-Dec-15 16:00N 34°25' W 125°44'510.8
2017-Dec-15 15:30N 34°25' W 125°38'5 9.2
2017-Dec-15 15:00N 34°25' W 125°32'3411.2
2017-Dec-15 11:59N 34°26' W 124°51'612.0
2017-Dec-15 11:30N 34°26' W 124°44'712.2
2017-Dec-15 10:54N 34°27' W 124°35'511.9
2017-Dec-15 10:30N 34°27' W 124°30'612.0
2017-Dec-15 09:59N 34°27' W 124°22'611.8
2017-Dec-15 09:31N 34°27' W 124°15'611.8
2017-Dec-15 09:00N 34°26' W 124°08'612.1
2017-Dec-15 08:30N 34°26' W 124°01'612.0
2017-Dec-15 08:00N 34°26' W 123°54'612.1
2017-Dec-15 07:31N 34°26' W 123°46'612.1
2017-Dec-15 07:00N 34°27' W 123°39'612.4
2017-Dec-15 06:30N 34°26' W 123°31'712.6
2017-Dec-15 05:59N 34°27' W 123°23'612.6
2017-Dec-15 05:30N 34°27' W 123°16'612.5
2017-Dec-15 05:00N 34°27' W 123°08'612.5
2017-Dec-15 04:31N 34°26' W 123°01'612.5
2017-Dec-15 04:00N 34°27' W 122°53'1812.2
2017-Dec-15 02:30N 34°27' W 122°31'1812.2
2017-Dec-15 01:00N 34°26' W 122°09'612.0
2017-Dec-15 00:30N 34°27' W 122°02'7312.2
2017-Dec-14 18:30N 34°22' W 120°33'612.8
2017-Dec-14 18:00N 34°20' W 120°25'612.9
2017-Dec-14 17:30N 34°19' W 120°18'712.9
2017-Dec-14 17:00N 34°17' W 120°10'612.8
2017-Dec-14 16:30N 34°15' W 120°03'713.0
2017-Dec-14 16:00N 34°14' W 119°55'1313.3
2017-Dec-14 15:00N 34°10' W 119°40'713.4
2017-Dec-14 14:30N 34°08' W 119°32'713.6
2017-Dec-14 14:00N 34°06' W 119°24'713.5
2017-Dec-14 13:29N 34°04' W 119°16'613.4
2017-Dec-14 13:00N 34°01' W 119°09'713.3
2017-Dec-14 12:30N 33°58' W 119°02'713.4
2017-Dec-14 12:00N 33°55' W 118°55'713.0
2017-Dec-14 11:30N 33°51' W 118°48'612.4
2017-Dec-14 11:00N 33°48' W 118°42'611.6
2017-Dec-14 10:31N 33°45' W 118°36'611.8
2017-Dec-14 10:00N 33°42' W 118°30'611.8
2017-Dec-14 09:30N 33°40' W 118°24'611.3
2017-Dec-14 09:00N 33°38' W 118°17'5 9.9
2017-Dec-14 08:31N 33°40' W 118°12'4 7.0
2017-Dec-14 08:00N 33°44' W 118°12'0 0.3
2017-Dec-14 06:13N 33°44' W 118°12'0 0.0
2017-Dec-14 01:43N 33°44' W 118°12'0 0.0
2017-Dec-14 01:13N 33°44' W 118°12'0 0.0
2017-Dec-14 00:55N 33°44' W 118°12'0 0.0
2017-Dec-14 00:07N 33°44' W 118°12'0 0.0
2017-Dec-13 23:55N 33°44' W 118°12'0 0.0
2017-Dec-13 21:25N 33°44' W 118°12'0 0.0
2017-Dec-13 20:55N 33°44' W 118°12'0 0.1
2017-Dec-13 20:19N 33°44' W 118°12'0 0.1
2017-Dec-13 19:55N 33°44' W 118°12'0 0.0
2017-Dec-13 19:25N 33°44' W 118°12'0 0.1
2017-Dec-13 18:55N 33°44' W 118°12'0 0.1
2017-Dec-13 18:25N 33°44' W 118°12'0 0.0
2017-Dec-13 17:55N 33°44' W 118°12'0 0.0
2017-Dec-13 05:55N 33°44' W 118°12'0 0.1
2017-Dec-13 05:25N 33°44' W 118°12'3 0.3
2017-Dec-12 17:16N 33°42' W 118°09'0 0.0
2017-Dec-12 16:52N 33°42' W 118°09'0 0.0
2017-Dec-12 16:28N 33°42' W 118°09'0 0.0
2017-Dec-12 15:58N 33°42' W 118°09'0 0.0
2017-Dec-12 15:28N 33°42' W 118°09'0 0.0
2017-Dec-12 14:58N 33°42' W 118°09'0 0.0
2017-Dec-12 13:52N 33°42' W 118°09'0 0.0
2017-Dec-12 12:46N 33°42' W 118°09'0 0.0
2017-Dec-12 12:16N 33°42' W 118°09'0 0.0
2017-Dec-12 11:58N 33°42' W 118°09'0 0.0
2017-Dec-12 11:28N 33°42' W 118°09'0 0.0
2017-Dec-12 10:58N 33°42' W 118°09'0 0.0
2017-Dec-12 07:40N 33°42' W 118°09'0 0.0
2017-Dec-12 07:28N 33°42' W 118°09'4 0.6
2017-Dec-12 02:03N 33°39' W 118°11'0 5.3
2017-Dec-12 02:00N 33°39' W 118°11'5 5.2
2017-Dec-12 01:06N 33°36' W 118°16'1 6.9
2017-Dec-12 01:00N 33°36' W 118°17'5 9.1
2017-Dec-12 00:30N 33°37' W 118°23'611.2
2017-Dec-12 00:00N 33°40' W 118°28'510.8
2017-Dec-11 23:30N 33°43' W 118°34'611.0
2017-Dec-11 22:59N 33°48' W 118°31'7 7.5
2017-Dec-11 22:02N 33°55' W 118°28'0 2.0
2017-Dec-11 21:59N 33°55' W 118°28'  
2017-Dec-08 16:22N 33°54' W 118°27'  

Dump ship's entire track history